sensor_id;sensor_type;location;lat;lon;timestamp;P1;durP1;ratioP1;P2;durP2;ratioP2
41643;SDS011;44236;48.098;11.582;2023-03-03T00:00:57;7.65;;;4.95;;
41643;SDS011;44236;48.098;11.582;2023-03-03T00:03:23;7.30;;;4.57;;
41643;SDS011;44236;48.098;11.582;2023-03-03T00:05:51;6.65;;;4.55;;
41643;SDS011;44236;48.098;11.582;2023-03-03T00:08:17;7.93;;;4.70;;
41643;SDS011;44236;48.098;11.582;2023-03-03T00:10:43;10.38;;;4.40;;
41643;SDS011;44236;48.098;11.582;2023-03-03T00:13:27;7.78;;;5.40;;
41643;SDS011;44236;48.098;11.582;2023-03-03T00:18:58;7.50;;;4.82;;
41643;SDS011;44236;48.098;11.582;2023-03-03T00:21:41;7.13;;;4.22;;
41643;SDS011;44236;48.098;11.582;2023-03-03T00:24:19;6.30;;;4.10;;
41643;SDS011;44236;48.098;11.582;2023-03-03T00:26:50;7.15;;;4.80;;
41643;SDS011;44236;48.098;11.582;2023-03-03T00:29:36;7.82;;;4.95;;
41643;SDS011;44236;48.098;11.582;2023-03-03T00:34:36;8.20;;;4.78;;
41643;SDS011;44236;48.098;11.582;2023-03-03T00:37:02;6.82;;;4.65;;
41643;SDS011;44236;48.098;11.582;2023-03-03T00:39:41;8.00;;;4.68;;
41643;SDS011;44236;48.098;11.582;2023-03-03T00:42:14;6.68;;;4.13;;
41643;SDS011;44236;48.098;11.582;2023-03-03T00:44:47;6.65;;;3.92;;
41643;SDS011;44236;48.098;11.582;2023-03-03T00:47:25;6.75;;;4.15;;
41643;SDS011;44236;48.098;11.582;2023-03-03T00:50:34;8.32;;;4.68;;
41643;SDS011;44236;48.098;11.582;2023-03-03T00:53:10;7.85;;;3.83;;
41643;SDS011;44236;48.098;11.582;2023-03-03T00:55:35;7.65;;;4.50;;
41643;SDS011;44236;48.098;11.582;2023-03-03T00:58:01;8.98;;;4.75;;
41643;SDS011;44236;48.098;11.582;2023-03-03T01:00:27;7.18;;;4.28;;
41643;SDS011;44236;48.098;11.582;2023-03-03T01:02:53;7.30;;;4.47;;
41643;SDS011;44236;48.098;11.582;2023-03-03T01:05:19;7.15;;;4.47;;
41643;SDS011;44236;48.098;11.582;2023-03-03T01:07:45;6.45;;;4.05;;
41643;SDS011;44236;48.098;11.582;2023-03-03T01:10:11;5.85;;;4.10;;
41643;SDS011;44236;48.098;11.582;2023-03-03T01:12:37;6.50;;;3.92;;
41643;SDS011;44236;48.098;11.582;2023-03-03T01:15:05;6.57;;;3.92;;
41643;SDS011;44236;48.098;11.582;2023-03-03T01:17:32;6.88;;;4.00;;
41643;SDS011;44236;48.098;11.582;2023-03-03T01:19:58;6.80;;;4.22;;
41643;SDS011;44236;48.098;11.582;2023-03-03T01:22:24;8.00;;;4.38;;
41643;SDS011;44236;48.098;11.582;2023-03-03T01:24:50;8.27;;;3.88;;
41643;SDS011;44236;48.098;11.582;2023-03-03T01:27:15;6.63;;;3.78;;
41643;SDS011;44236;48.098;11.582;2023-03-03T01:29:41;6.53;;;3.75;;
41643;SDS011;44236;48.098;11.582;2023-03-03T01:32:07;7.68;;;4.00;;
41643;SDS011;44236;48.098;11.582;2023-03-03T01:34:32;6.53;;;4.35;;
41643;SDS011;44236;48.098;11.582;2023-03-03T01:36:58;6.63;;;3.97;;
41643;SDS011;44236;48.098;11.582;2023-03-03T01:39:25;6.32;;;3.92;;
41643;SDS011;44236;48.098;11.582;2023-03-03T01:41:50;7.35;;;4.05;;
41643;SDS011;44236;48.098;11.582;2023-03-03T01:44:16;7.93;;;4.82;;
41643;SDS011;44236;48.098;11.582;2023-03-03T01:47:03;6.25;;;3.83;;
41643;SDS011;44236;48.098;11.582;2023-03-03T01:52:21;6.65;;;4.03;;
41643;SDS011;44236;48.098;11.582;2023-03-03T01:57:26;6.53;;;3.75;;
41643;SDS011;44236;48.098;11.582;2023-03-03T01:59:57;7.50;;;4.15;;
41643;SDS011;44236;48.098;11.582;2023-03-03T02:02:24;8.50;;;3.83;;
41643;SDS011;44236;48.098;11.582;2023-03-03T02:04:51;6.55;;;3.80;;
41643;SDS011;44236;48.098;11.582;2023-03-03T02:07:17;6.50;;;3.83;;
41643;SDS011;44236;48.098;11.582;2023-03-03T02:17:40;5.80;;;3.20;;
41643;SDS011;44236;48.098;11.582;2023-03-03T02:20:09;5.72;;;3.67;;
41643;SDS011;44236;48.098;11.582;2023-03-03T02:22:43;6.70;;;4.35;;
41643;SDS011;44236;48.098;11.582;2023-03-03T02:25:17;6.65;;;3.72;;
41643;SDS011;44236;48.098;11.582;2023-03-03T02:27:51;5.95;;;3.78;;
41643;SDS011;44236;48.098;11.582;2023-03-03T02:30:18;5.70;;;3.40;;
41643;SDS011;44236;48.098;11.582;2023-03-03T02:32:45;6.50;;;3.70;;
41643;SDS011;44236;48.098;11.582;2023-03-03T02:38:08;6.28;;;4.07;;
41643;SDS011;44236;48.098;11.582;2023-03-03T02:40:39;6.50;;;3.95;;
41643;SDS011;44236;48.098;11.582;2023-03-03T02:43:13;6.07;;;3.60;;
41643;SDS011;44236;48.098;11.582;2023-03-03T02:45:50;5.53;;;3.75;;
41643;SDS011;44236;48.098;11.582;2023-03-03T02:48:16;6.78;;;4.07;;
41643;SDS011;44236;48.098;11.582;2023-03-03T02:50:41;6.13;;;3.72;;
41643;SDS011;44236;48.098;11.582;2023-03-03T02:53:07;6.75;;;3.78;;
41643;SDS011;44236;48.098;11.582;2023-03-03T02:55:33;5.75;;;3.42;;
41643;SDS011;44236;48.098;11.582;2023-03-03T02:57:58;5.15;;;3.30;;
41643;SDS011;44236;48.098;11.582;2023-03-03T03:00:24;4.82;;;2.90;;
41643;SDS011;44236;48.098;11.582;2023-03-03T03:02:49;5.97;;;3.60;;
41643;SDS011;44236;48.098;11.582;2023-03-03T03:05:15;6.30;;;3.55;;
41643;SDS011;44236;48.098;11.582;2023-03-03T03:07:41;5.70;;;3.47;;
41643;SDS011;44236;48.098;11.582;2023-03-03T03:10:06;6.28;;;3.40;;
41643;SDS011;44236;48.098;11.582;2023-03-03T03:12:36;7.75;;;4.72;;
41643;SDS011;44236;48.098;11.582;2023-03-03T03:15:02;6.05;;;3.88;;
41643;SDS011;44236;48.098;11.582;2023-03-03T03:17:28;5.50;;;3.38;;
41643;SDS011;44236;48.098;11.582;2023-03-03T03:19:53;6.80;;;3.58;;
41643;SDS011;44236;48.098;11.582;2023-03-03T03:22:19;7.47;;;3.10;;
41643;SDS011;44236;48.098;11.582;2023-03-03T03:24:45;6.05;;;3.60;;
41643;SDS011;44236;48.098;11.582;2023-03-03T03:27:10;6.47;;;3.53;;
41643;SDS011;44236;48.098;11.582;2023-03-03T03:29:36;5.82;;;3.28;;
41643;SDS011;44236;48.098;11.582;2023-03-03T03:32:01;5.35;;;3.20;;
41643;SDS011;44236;48.098;11.582;2023-03-03T03:34:27;5.47;;;2.85;;
41643;SDS011;44236;48.098;11.582;2023-03-03T03:36:53;5.35;;;3.30;;
41643;SDS011;44236;48.098;11.582;2023-03-03T03:39:18;5.72;;;3.45;;
41643;SDS011;44236;48.098;11.582;2023-03-03T03:41:44;5.85;;;3.35;;
41643;SDS011;44236;48.098;11.582;2023-03-03T03:44:10;5.30;;;3.30;;
41643;SDS011;44236;48.098;11.582;2023-03-03T03:46:36;6.30;;;3.60;;
41643;SDS011;44236;48.098;11.582;2023-03-03T03:49:01;5.00;;;3.05;;
41643;SDS011;44236;48.098;11.582;2023-03-03T03:51:27;4.85;;;2.92;;
41643;SDS011;44236;48.098;11.582;2023-03-03T03:53:52;4.88;;;2.90;;
41643;SDS011;44236;48.098;11.582;2023-03-03T03:56:18;5.28;;;3.17;;
41643;SDS011;44236;48.098;11.582;2023-03-03T03:58:44;5.93;;;3.92;;
41643;SDS011;44236;48.098;11.582;2023-03-03T04:01:09;5.60;;;3.58;;
41643;SDS011;44236;48.098;11.582;2023-03-03T04:03:35;5.38;;;3.38;;
41643;SDS011;44236;48.098;11.582;2023-03-03T04:06:00;4.88;;;3.00;;
41643;SDS011;44236;48.098;11.582;2023-03-03T04:08:26;5.93;;;3.53;;
41643;SDS011;44236;48.098;11.582;2023-03-03T04:10:51;5.10;;;3.17;;
41643;SDS011;44236;48.098;11.582;2023-03-03T04:13:17;5.10;;;3.15;;
41643;SDS011;44236;48.098;11.582;2023-03-03T04:15:43;4.97;;;2.88;;
41643;SDS011;44236;48.098;11.582;2023-03-03T04:18:08;5.38;;;3.35;;
41643;SDS011;44236;48.098;11.582;2023-03-03T04:20:34;5.57;;;3.00;;
41643;SDS011;44236;48.098;11.582;2023-03-03T04:22:59;5.93;;;3.17;;
41643;SDS011;44236;48.098;11.582;2023-03-03T04:25:25;5.35;;;3.28;;
41643;SDS011;44236;48.098;11.582;2023-03-03T04:27:51;6.00;;;3.25;;
41643;SDS011;44236;48.098;11.582;2023-03-03T04:30:18;7.68;;;3.95;;
41643;SDS011;44236;48.098;11.582;2023-03-03T04:32:44;5.82;;;3.30;;
41643;SDS011;44236;48.098;11.582;2023-03-03T04:35:09;4.80;;;3.10;;
41643;SDS011;44236;48.098;11.582;2023-03-03T04:37:36;5.10;;;3.28;;
41643;SDS011;44236;48.098;11.582;2023-03-03T04:40:06;4.90;;;2.92;;
41643;SDS011;44236;48.098;11.582;2023-03-03T04:42:34;4.75;;;2.97;;
41643;SDS011;44236;48.098;11.582;2023-03-03T04:45:00;4.60;;;2.88;;
41643;SDS011;44236;48.098;11.582;2023-03-03T04:47:25;7.90;;;3.22;;
41643;SDS011;44236;48.098;11.582;2023-03-03T04:49:51;5.25;;;2.80;;
41643;SDS011;44236;48.098;11.582;2023-03-03T04:52:17;5.20;;;2.95;;
41643;SDS011;44236;48.098;11.582;2023-03-03T04:54:42;4.55;;;2.67;;
41643;SDS011;44236;48.098;11.582;2023-03-03T04:57:08;4.40;;;2.53;;
41643;SDS011;44236;48.098;11.582;2023-03-03T04:59:34;5.88;;;3.20;;
41643;SDS011;44236;48.098;11.582;2023-03-03T05:02:00;4.10;;;2.60;;
41643;SDS011;44236;48.098;11.582;2023-03-03T05:04:26;4.47;;;2.63;;
41643;SDS011;44236;48.098;11.582;2023-03-03T05:06:51;5.47;;;3.40;;
41643;SDS011;44236;48.098;11.582;2023-03-03T05:09:17;4.22;;;2.38;;
41643;SDS011;44236;48.098;11.582;2023-03-03T05:11:42;5.00;;;3.05;;
41643;SDS011;44236;48.098;11.582;2023-03-03T05:14:08;4.65;;;2.67;;
41643;SDS011;44236;48.098;11.582;2023-03-03T05:16:34;4.72;;;2.78;;
41643;SDS011;44236;48.098;11.582;2023-03-03T05:18:59;5.30;;;2.85;;
41643;SDS011;44236;48.098;11.582;2023-03-03T05:21:25;5.07;;;3.05;;
41643;SDS011;44236;48.098;11.582;2023-03-03T05:23:50;4.45;;;2.60;;
41643;SDS011;44236;48.098;11.582;2023-03-03T05:26:16;5.38;;;2.70;;
41643;SDS011;44236;48.098;11.582;2023-03-03T05:28:42;4.40;;;2.63;;
41643;SDS011;44236;48.098;11.582;2023-03-03T05:31:07;5.03;;;3.03;;
41643;SDS011;44236;48.098;11.582;2023-03-03T05:33:33;5.65;;;2.88;;
41643;SDS011;44236;48.098;11.582;2023-03-03T05:35:58;4.88;;;3.13;;
41643;SDS011;44236;48.098;11.582;2023-03-03T05:38:24;4.50;;;2.50;;
41643;SDS011;44236;48.098;11.582;2023-03-03T05:40:50;4.10;;;2.28;;
41643;SDS011;44236;48.098;11.582;2023-03-03T05:43:15;4.15;;;2.75;;
41643;SDS011;44236;48.098;11.582;2023-03-03T05:45:41;4.45;;;2.78;;
41643;SDS011;44236;48.098;11.582;2023-03-03T05:48:07;4.85;;;2.70;;
41643;SDS011;44236;48.098;11.582;2023-03-03T05:50:34;4.95;;;2.35;;
41643;SDS011;44236;48.098;11.582;2023-03-03T05:53:00;5.25;;;2.80;;
41643;SDS011;44236;48.098;11.582;2023-03-03T05:55:26;3.92;;;2.42;;
41643;SDS011;44236;48.098;11.582;2023-03-03T05:57:52;4.13;;;2.67;;
41643;SDS011;44236;48.098;11.582;2023-03-03T06:00:18;3.65;;;2.20;;
41643;SDS011;44236;48.098;11.582;2023-03-03T06:02:44;4.10;;;2.60;;
41643;SDS011;44236;48.098;11.582;2023-03-03T06:05:09;5.43;;;2.75;;
41643;SDS011;44236;48.098;11.582;2023-03-03T06:07:35;4.72;;;2.70;;
41643;SDS011;44236;48.098;11.582;2023-03-03T06:10:02;6.57;;;2.75;;
41643;SDS011;44236;48.098;11.582;2023-03-03T06:12:28;5.93;;;3.10;;
41643;SDS011;44236;48.098;11.582;2023-03-03T06:14:54;4.22;;;2.40;;
41643;SDS011;44236;48.098;11.582;2023-03-03T06:17:19;5.65;;;2.75;;
41643;SDS011;44236;48.098;11.582;2023-03-03T06:19:45;8.27;;;3.08;;
41643;SDS011;44236;48.098;11.582;2023-03-03T06:22:12;7.60;;;2.33;;
41643;SDS011;44236;48.098;11.582;2023-03-03T06:24:38;7.35;;;2.80;;
41643;SDS011;44236;48.098;11.582;2023-03-03T06:27:04;8.68;;;3.50;;
41643;SDS011;44236;48.098;11.582;2023-03-03T06:29:32;9.77;;;3.90;;
41643;SDS011;44236;48.098;11.582;2023-03-03T06:31:57;6.80;;;3.08;;
41643;SDS011;44236;48.098;11.582;2023-03-03T06:34:23;7.88;;;3.30;;
41643;SDS011;44236;48.098;11.582;2023-03-03T06:36:52;10.85;;;3.92;;
41643;SDS011;44236;48.098;11.582;2023-03-03T06:39:17;9.30;;;3.85;;
41643;SDS011;44236;48.098;11.582;2023-03-03T06:41:43;8.90;;;4.50;;
41643;SDS011;44236;48.098;11.582;2023-03-03T06:44:08;9.30;;;4.25;;
41643;SDS011;44236;48.098;11.582;2023-03-03T06:46:35;12.35;;;4.80;;
41643;SDS011;44236;48.098;11.582;2023-03-03T06:49:01;14.65;;;5.35;;
41643;SDS011;44236;48.098;11.582;2023-03-03T06:51:34;14.13;;;5.15;;
41643;SDS011;44236;48.098;11.582;2023-03-03T06:54:10;13.38;;;5.30;;
41643;SDS011;44236;48.098;11.582;2023-03-03T06:56:38;10.27;;;4.82;;
41643;SDS011;44236;48.098;11.582;2023-03-03T06:59:14;12.23;;;5.32;;
41643;SDS011;44236;48.098;11.582;2023-03-03T07:01:42;9.15;;;4.45;;
41643;SDS011;44236;48.098;11.582;2023-03-03T07:04:30;17.20;;;4.53;;
41643;SDS011;44236;48.098;11.582;2023-03-03T07:06:57;20.13;;;6.13;;
41643;SDS011;44236;48.098;11.582;2023-03-03T07:09:30;13.02;;;4.80;;
41643;SDS011;44236;48.098;11.582;2023-03-03T07:11:59;12.00;;;4.65;;
41643;SDS011;44236;48.098;11.582;2023-03-03T07:14:27;9.68;;;4.13;;
41643;SDS011;44236;48.098;11.582;2023-03-03T07:16:57;20.17;;;5.30;;
41643;SDS011;44236;48.098;11.582;2023-03-03T07:22:07;22.27;;;4.72;;
41643;SDS011;44236;48.098;11.582;2023-03-03T07:24:44;10.00;;;4.88;;
41643;SDS011;44236;48.098;11.582;2023-03-03T07:29:45;15.32;;;4.90;;
41643;SDS011;44236;48.098;11.582;2023-03-03T07:41:04;12.23;;;5.50;;
41643;SDS011;44236;48.098;11.582;2023-03-03T07:43:40;20.15;;;5.60;;
41643;SDS011;44236;48.098;11.582;2023-03-03T07:48:48;11.52;;;4.10;;
41643;SDS011;44236;48.098;11.582;2023-03-03T07:51:37;14.02;;;4.90;;
41643;SDS011;44236;48.098;11.582;2023-03-03T07:56:41;15.27;;;4.88;;
41643;SDS011;44236;48.098;11.582;2023-03-03T07:59:20;12.93;;;5.68;;
41643;SDS011;44236;48.098;11.582;2023-03-03T08:01:57;14.05;;;5.85;;
41643;SDS011;44236;48.098;11.582;2023-03-03T08:04:58;11.35;;;5.35;;
41643;SDS011;44236;48.098;11.582;2023-03-03T08:07:17;14.52;;;5.53;;
41643;SDS011;44236;48.098;11.582;2023-03-03T08:12:37;12.50;;;5.55;;
41643;SDS011;44236;48.098;11.582;2023-03-03T08:15:21;10.75;;;5.10;;
41643;SDS011;44236;48.098;11.582;2023-03-03T08:17:49;13.80;;;6.43;;
41643;SDS011;44236;48.098;11.582;2023-03-03T08:23:14;10.35;;;5.43;;
41643;SDS011;44236;48.098;11.582;2023-03-03T08:25:41;17.15;;;5.35;;
41643;SDS011;44236;48.098;11.582;2023-03-03T08:28:08;11.23;;;4.90;;
41643;SDS011;44236;48.098;11.582;2023-03-03T08:30:34;9.60;;;4.68;;
41643;SDS011;44236;48.098;11.582;2023-03-03T08:33:00;11.38;;;5.07;;
41643;SDS011;44236;48.098;11.582;2023-03-03T08:35:26;9.30;;;4.78;;
41643;SDS011;44236;48.098;11.582;2023-03-03T08:37:52;9.32;;;4.10;;
41643;SDS011;44236;48.098;11.582;2023-03-03T08:40:17;8.52;;;4.50;;
41643;SDS011;44236;48.098;11.582;2023-03-03T08:42:43;10.70;;;5.20;;
41643;SDS011;44236;48.098;11.582;2023-03-03T08:45:09;7.70;;;4.30;;
41643;SDS011;44236;48.098;11.582;2023-03-03T08:47:34;9.77;;;4.55;;
41643;SDS011;44236;48.098;11.582;2023-03-03T08:50:00;7.63;;;4.88;;
41643;SDS011;44236;48.098;11.582;2023-03-03T08:52:26;8.45;;;5.07;;
41643;SDS011;44236;48.098;11.582;2023-03-03T08:54:51;7.93;;;4.22;;
41643;SDS011;44236;48.098;11.582;2023-03-03T08:57:18;6.53;;;3.78;;
41643;SDS011;44236;48.098;11.582;2023-03-03T08:59:43;10.38;;;4.70;;
41643;SDS011;44236;48.098;11.582;2023-03-03T09:02:11;9.60;;;4.13;;
41643;SDS011;44236;48.098;11.582;2023-03-03T09:04:37;9.13;;;3.70;;
41643;SDS011;44236;48.098;11.582;2023-03-03T09:07:03;8.50;;;4.43;;
41643;SDS011;44236;48.098;11.582;2023-03-03T09:09:29;7.88;;;4.05;;
41643;SDS011;44236;48.098;11.582;2023-03-03T09:11:56;7.88;;;4.28;;
41643;SDS011;44236;48.098;11.582;2023-03-03T09:14:25;6.40;;;3.88;;
41643;SDS011;44236;48.098;11.582;2023-03-03T09:16:54;7.65;;;4.88;;
41643;SDS011;44236;48.098;11.582;2023-03-03T09:21:53;7.07;;;4.35;;
41643;SDS011;44236;48.098;11.582;2023-03-03T09:24:27;7.53;;;3.75;;
41643;SDS011;44236;48.098;11.582;2023-03-03T09:26:59;8.23;;;4.20;;
41643;SDS011;44236;48.098;11.582;2023-03-03T09:29:25;10.88;;;4.20;;
41643;SDS011;44236;48.098;11.582;2023-03-03T09:34:27;7.68;;;4.38;;
41643;SDS011;44236;48.098;11.582;2023-03-03T09:37:00;7.20;;;3.90;;
41643;SDS011;44236;48.098;11.582;2023-03-03T09:39:28;6.57;;;3.65;;
41643;SDS011;44236;48.098;11.582;2023-03-03T09:50:10;6.57;;;4.15;;
41643;SDS011;44236;48.098;11.582;2023-03-03T09:55:43;6.47;;;3.80;;
41643;SDS011;44236;48.098;11.582;2023-03-03T10:03:59;7.40;;;3.80;;
41643;SDS011;44236;48.098;11.582;2023-03-03T10:12:26;5.63;;;3.30;;
41643;SDS011;44236;48.098;11.582;2023-03-03T10:18:11;8.60;;;3.80;;
41643;SDS011;44236;48.098;11.582;2023-03-03T10:29:46;6.10;;;3.78;;
41643;SDS011;44236;48.098;11.582;2023-03-03T10:40:22;7.07;;;3.47;;
41643;SDS011;44236;48.098;11.582;2023-03-03T10:45:36;7.15;;;3.90;;
41643;SDS011;44236;48.098;11.582;2023-03-03T10:51:00;7.82;;;4.28;;
41643;SDS011;44236;48.098;11.582;2023-03-03T11:01:48;10.80;;;5.57;;
41643;SDS011;44236;48.098;11.582;2023-03-03T11:18:14;9.50;;;5.65;;
41643;SDS011;44236;48.098;11.582;2023-03-03T11:26:28;11.30;;;5.07;;
41643;SDS011;44236;48.098;11.582;2023-03-03T11:31:48;9.52;;;4.93;;
41643;SDS011;44236;48.098;11.582;2023-03-03T11:34:36;10.73;;;5.38;;
41643;SDS011;44236;48.098;11.582;2023-03-03T11:37:21;9.52;;;4.90;;
41643;SDS011;44236;48.098;11.582;2023-03-03T11:39:48;9.75;;;5.22;;
41643;SDS011;44236;48.098;11.582;2023-03-03T11:42:22;9.45;;;5.00;;
41643;SDS011;44236;48.098;11.582;2023-03-03T11:47:48;7.90;;;5.18;;
41643;SDS011;44236;48.098;11.582;2023-03-03T11:55:44;7.32;;;4.80;;
41643;SDS011;44236;48.098;11.582;2023-03-03T11:58:16;7.30;;;4.43;;
41643;SDS011;44236;48.098;11.582;2023-03-03T12:09:08;8.65;;;4.30;;
41643;SDS011;44236;48.098;11.582;2023-03-03T12:39:06;9.35;;;5.32;;
41643;SDS011;44236;48.098;11.582;2023-03-03T12:44:29;8.48;;;5.07;;
41643;SDS011;44236;48.098;11.582;2023-03-03T13:09:18;8.50;;;4.13;;
41643;SDS011;44236;48.098;11.582;2023-03-03T13:14:40;10.05;;;4.60;;
41643;SDS011;44236;48.098;11.582;2023-03-03T13:20:29;6.15;;;3.45;;
41643;SDS011;44236;48.098;11.582;2023-03-03T13:25:31;6.88;;;3.92;;
41643;SDS011;44236;48.098;11.582;2023-03-03T13:28:09;7.95;;;4.20;;
41643;SDS011;44236;48.098;11.582;2023-03-03T13:30:47;6.60;;;4.50;;
41643;SDS011;44236;48.098;11.582;2023-03-03T13:35:54;6.35;;;3.85;;
41643;SDS011;44236;48.098;11.582;2023-03-03T13:38:29;7.25;;;4.30;;
41643;SDS011;44236;48.098;11.582;2023-03-03T13:46:41;6.53;;;3.80;;
41643;SDS011;44236;48.098;11.582;2023-03-03T13:57:13;7.68;;;4.35;;
41643;SDS011;44236;48.098;11.582;2023-03-03T14:05:36;7.22;;;4.30;;
41643;SDS011;44236;48.098;11.582;2023-03-03T14:16:21;6.38;;;3.90;;
41643;SDS011;44236;48.098;11.582;2023-03-03T14:21:50;6.38;;;4.35;;
41643;SDS011;44236;48.098;11.582;2023-03-03T14:24:21;7.22;;;4.13;;
41643;SDS011;44236;48.098;11.582;2023-03-03T14:31:50;8.40;;;4.95;;
41643;SDS011;44236;48.098;11.582;2023-03-03T14:37:19;6.20;;;4.30;;
41643;SDS011;44236;48.098;11.582;2023-03-03T14:42:55;7.93;;;4.53;;
41643;SDS011;44236;48.098;11.582;2023-03-03T14:47:57;7.00;;;3.97;;
41643;SDS011;44236;48.098;11.582;2023-03-03T14:50:34;8.13;;;4.70;;
41643;SDS011;44236;48.098;11.582;2023-03-03T14:53:04;7.65;;;4.20;;
41643;SDS011;44236;48.098;11.582;2023-03-03T14:55:41;7.93;;;4.18;;
41643;SDS011;44236;48.098;11.582;2023-03-03T15:04:04;7.28;;;4.47;;
41643;SDS011;44236;48.098;11.582;2023-03-03T15:06:48;9.32;;;5.25;;
41643;SDS011;44236;48.098;11.582;2023-03-03T15:14:51;39.42;;;23.33;;
41643;SDS011;44236;48.098;11.582;2023-03-03T15:18:11;42.33;;;23.13;;
41643;SDS011;44236;48.098;11.582;2023-03-03T15:20:21;36.00;;;21.08;;
41643;SDS011;44236;48.098;11.582;2023-03-03T15:25:44;32.58;;;17.70;;
41643;SDS011;44236;48.098;11.582;2023-03-03T15:39:22;20.00;;;12.18;;
41643;SDS011;44236;48.098;11.582;2023-03-03T15:47:21;15.27;;;9.38;;
41643;SDS011;44236;48.098;11.582;2023-03-03T16:03:20;13.13;;;7.60;;
41643;SDS011;44236;48.098;11.582;2023-03-03T16:08:25;14.07;;;7.63;;
41643;SDS011;44236;48.098;11.582;2023-03-03T16:11:25;21.63;;;6.40;;
41643;SDS011;44236;48.098;11.582;2023-03-03T16:17:01;12.27;;;7.43;;
41643;SDS011;44236;48.098;11.582;2023-03-03T16:22:20;11.52;;;6.28;;
41643;SDS011;44236;48.098;11.582;2023-03-03T16:27:49;15.88;;;6.82;;
41643;SDS011;44236;48.098;11.582;2023-03-03T16:30:31;17.23;;;6.22;;
41643;SDS011;44236;48.098;11.582;2023-03-03T16:38:36;16.42;;;6.72;;
41643;SDS011;44236;48.098;11.582;2023-03-03T16:41:18;17.83;;;6.57;;
41643;SDS011;44236;48.098;11.582;2023-03-03T16:44:35;11.07;;;5.65;;
41643;SDS011;44236;48.098;11.582;2023-03-03T16:46:54;14.18;;;6.38;;
41643;SDS011;44236;48.098;11.582;2023-03-03T16:52:31;11.23;;;5.53;;
41643;SDS011;44236;48.098;11.582;2023-03-03T16:55:08;11.07;;;5.78;;
41643;SDS011;44236;48.098;11.582;2023-03-03T16:57:44;13.82;;;5.72;;
41643;SDS011;44236;48.098;11.582;2023-03-03T17:00:22;16.85;;;5.43;;
41643;SDS011;44236;48.098;11.582;2023-03-03T17:03:14;11.98;;;6.20;;
41643;SDS011;44236;48.098;11.582;2023-03-03T17:22:02;12.10;;;5.72;;
41643;SDS011;44236;48.098;11.582;2023-03-03T17:35:59;15.98;;;6.70;;
41643;SDS011;44236;48.098;11.582;2023-03-03T17:38:17;18.15;;;7.18;;
41643;SDS011;44236;48.098;11.582;2023-03-03T17:41:20;19.65;;;8.02;;
41643;SDS011;44236;48.098;11.582;2023-03-03T17:44:14;22.65;;;8.50;;
41643;SDS011;44236;48.098;11.582;2023-03-03T17:47:06;25.92;;;10.38;;
41643;SDS011;44236;48.098;11.582;2023-03-03T17:49:49;20.33;;;9.45;;
41643;SDS011;44236;48.098;11.582;2023-03-03T17:55:18;19.95;;;9.95;;
41643;SDS011;44236;48.098;11.582;2023-03-03T18:06:16;16.85;;;9.52;;
41643;SDS011;44236;48.098;11.582;2023-03-03T18:14:35;16.60;;;8.35;;
41643;SDS011;44236;48.098;11.582;2023-03-03T18:22:50;18.67;;;6.75;;
41643;SDS011;44236;48.098;11.582;2023-03-03T18:26:00;20.45;;;7.55;;
41643;SDS011;44236;48.098;11.582;2023-03-03T18:30:54;18.35;;;7.72;;
41643;SDS011;44236;48.098;11.582;2023-03-03T18:38:52;15.70;;;7.53;;
41643;SDS011;44236;48.098;11.582;2023-03-03T18:41:22;14.95;;;7.78;;
41643;SDS011;44236;48.098;11.582;2023-03-03T18:43:53;13.10;;;7.25;;
41643;SDS011;44236;48.098;11.582;2023-03-03T18:54:04;13.05;;;7.32;;
41643;SDS011;44236;48.098;11.582;2023-03-03T19:04:43;13.35;;;7.18;;
41643;SDS011;44236;48.098;11.582;2023-03-03T19:10:11;16.60;;;6.75;;
41643;SDS011;44236;48.098;11.582;2023-03-03T19:15:59;12.30;;;6.20;;
41643;SDS011;44236;48.098;11.582;2023-03-03T19:18:30;15.57;;;6.90;;
41643;SDS011;44236;48.098;11.582;2023-03-03T19:23:48;11.02;;;6.28;;
41643;SDS011;44236;48.098;11.582;2023-03-03T19:29:03;10.38;;;5.38;;
41643;SDS011;44236;48.098;11.582;2023-03-03T19:31:55;9.88;;;5.80;;
41643;SDS011;44236;48.098;11.582;2023-03-03T19:51:42;12.30;;;6.72;;
41643;SDS011;44236;48.098;11.582;2023-03-03T19:54:25;9.32;;;5.25;;
41643;SDS011;44236;48.098;11.582;2023-03-03T19:57:33;9.88;;;4.90;;
41643;SDS011;44236;48.098;11.582;2023-03-03T20:05:40;9.38;;;5.38;;
41643;SDS011;44236;48.098;11.582;2023-03-03T20:10:59;8.32;;;5.32;;
41643;SDS011;44236;48.098;11.582;2023-03-03T20:16:10;12.00;;;6.55;;
41643;SDS011;44236;48.098;11.582;2023-03-03T20:23:53;9.45;;;5.97;;
41643;SDS011;44236;48.098;11.582;2023-03-03T20:32:19;9.32;;;5.10;;
41643;SDS011;44236;48.098;11.582;2023-03-03T20:48:45;8.15;;;5.65;;
41643;SDS011;44236;48.098;11.582;2023-03-03T20:51:49;13.18;;;5.47;;
41643;SDS011;44236;48.098;11.582;2023-03-03T20:54:47;8.30;;;4.93;;
41643;SDS011;44236;48.098;11.582;2023-03-03T21:00:25;8.35;;;4.75;;
41643;SDS011;44236;48.098;11.582;2023-03-03T21:03:12;8.98;;;5.15;;
41643;SDS011;44236;48.098;11.582;2023-03-03T21:08:40;8.73;;;5.13;;
41643;SDS011;44236;48.098;11.582;2023-03-03T21:11:05;7.47;;;4.57;;
41643;SDS011;44236;48.098;11.582;2023-03-03T21:13:36;8.45;;;5.05;;
41643;SDS011;44236;48.098;11.582;2023-03-03T21:16:13;8.00;;;5.03;;
41643;SDS011;44236;48.098;11.582;2023-03-03T21:18:54;8.23;;;4.82;;
41643;SDS011;44236;48.098;11.582;2023-03-03T21:21:27;5.90;;;3.42;;
41643;SDS011;44236;48.098;11.582;2023-03-03T21:24:14;7.95;;;4.53;;
41643;SDS011;44236;48.098;11.582;2023-03-03T21:31:47;6.85;;;4.28;;
41643;SDS011;44236;48.098;11.582;2023-03-03T21:36:53;7.60;;;4.75;;
41643;SDS011;44236;48.098;11.582;2023-03-03T21:39:21;6.07;;;3.75;;
41643;SDS011;44236;48.098;11.582;2023-03-03T21:44:33;10.25;;;5.55;;
41643;SDS011;44236;48.098;11.582;2023-03-03T21:47:05;7.43;;;4.75;;
41643;SDS011;44236;48.098;11.582;2023-03-03T21:49:32;7.53;;;4.15;;
41643;SDS011;44236;48.098;11.582;2023-03-03T21:51:58;7.70;;;5.07;;
41643;SDS011;44236;48.098;11.582;2023-03-03T21:54:24;9.73;;;5.25;;
41643;SDS011;44236;48.098;11.582;2023-03-03T21:56:49;7.00;;;4.40;;
41643;SDS011;44236;48.098;11.582;2023-03-03T21:59:16;11.65;;;4.13;;
41643;SDS011;44236;48.098;11.582;2023-03-03T22:01:42;7.25;;;4.32;;
41643;SDS011;44236;48.098;11.582;2023-03-03T22:04:08;7.28;;;4.35;;
41643;SDS011;44236;48.098;11.582;2023-03-03T22:06:34;9.15;;;5.47;;
41643;SDS011;44236;48.098;11.582;2023-03-03T22:09:01;7.93;;;4.97;;
41643;SDS011;44236;48.098;11.582;2023-03-03T22:11:27;7.63;;;4.68;;
41643;SDS011;44236;48.098;11.582;2023-03-03T22:13:53;8.98;;;5.03;;
41643;SDS011;44236;48.098;11.582;2023-03-03T22:16:18;8.77;;;5.40;;
41643;SDS011;44236;48.098;11.582;2023-03-03T22:18:44;7.05;;;4.85;;
41643;SDS011;44236;48.098;11.582;2023-03-03T22:21:10;8.35;;;4.70;;
41643;SDS011;44236;48.098;11.582;2023-03-03T22:23:35;7.68;;;4.65;;
41643;SDS011;44236;48.098;11.582;2023-03-03T22:26:01;6.85;;;4.60;;
41643;SDS011;44236;48.098;11.582;2023-03-03T22:28:28;9.15;;;4.50;;
41643;SDS011;44236;48.098;11.582;2023-03-03T22:30:54;8.55;;;4.45;;
41643;SDS011;44236;48.098;11.582;2023-03-03T22:33:20;6.93;;;4.63;;
41643;SDS011;44236;48.098;11.582;2023-03-03T22:35:46;8.98;;;4.95;;
41643;SDS011;44236;48.098;11.582;2023-03-03T22:38:13;7.90;;;4.68;;
41643;SDS011;44236;48.098;11.582;2023-03-03T22:40:39;7.20;;;4.50;;
41643;SDS011;44236;48.098;11.582;2023-03-03T22:43:05;7.65;;;4.60;;
41643;SDS011;44236;48.098;11.582;2023-03-03T22:45:31;7.68;;;4.95;;